Bookmark and Share
Track history (hours):
 

Rickmers Seoul

Last reported at 2014-Apr-15 18:15 UTC. Time now 2014-Apr-20 13:32 UTC.
Position N 31°15' E 121°56'.

Length 192.9 m; beam 27.8 m; draft 11.2 m.

Type: Cargo ship. MMSI: 538001809.

NotesDate/timePositionNaut miles runAvg speedWind from/ knotsBaromVisibWave heightAir tempDewpointWater temp
2014-Apr-15 18:15N 31°15' E 121°56'810.4
2014-Apr-15 17:31N 31°18' E 121°47'1111.1
2014-Apr-15 16:33N 31°23' E 121°36'8 7.8
2014-Apr-15 15:33N 31°27' E 121°28'6 5.8
2014-Apr-15 14:33N 31°30' E 121°23'0 0.0
2014-Apr-15 12:30N 31°30' E 121°23'0 0.1
2014-Apr-15 11:30N 31°30' E 121°23'0 0.1
2014-Apr-15 10:30N 31°30' E 121°23'0 0.0
2014-Apr-15 08:30N 31°30' E 121°23'0 0.0
2014-Apr-15 03:30N 31°30' E 121°23'0 0.1
2014-Apr-15 02:30N 31°30' E 121°23'0 0.0
2014-Apr-15 00:30N 31°30' E 121°23'0 0.0
2014-Apr-14 23:30N 31°30' E 121°23'0 0.0
2014-Apr-14 22:30N 31°30' E 121°23'0 0.0
2014-Apr-14 21:30N 31°30' E 121°23'0 0.0
2014-Apr-14 20:30N 31°30' E 121°23'0 0.0
2014-Apr-14 19:30N 31°30' E 121°23'0 0.0
2014-Apr-14 16:30N 31°30' E 121°23'0 0.0
2014-Apr-14 15:30N 31°30' E 121°23'0 0.1
2014-Apr-14 14:30N 31°30' E 121°23'0 0.0
2014-Apr-14 11:30N 31°30' E 121°23'0 0.0
2014-Apr-14 10:30N 31°30' E 121°23'0 0.1
2014-Apr-14 09:30N 31°30' E 121°23'0 0.0
2014-Apr-13 22:33N 31°30' E 121°23'0 0.0
2014-Apr-13 19:06N 31°30' E 121°23'0 0.0
2014-Apr-13 17:18N 31°30' E 121°23'0 0.0
2014-Apr-13 16:24N 31°30' E 121°23'0 0.0
2014-Apr-13 15:30N 31°30' E 121°23'0 0.0
2014-Apr-13 14:19N 31°30' E 121°23'0 0.0
2014-Apr-13 13:24N 31°30' E 121°23'0 0.0
2014-Apr-13 12:24N 31°30' E 121°23'0 0.0
2014-Apr-13 11:18N 31°30' E 121°23'0 0.0
2014-Apr-13 10:30N 31°30' E 121°23'0 0.0
2014-Apr-13 09:30N 31°30' E 121°23'0 0.0
2014-Apr-13 08:24N 31°30' E 121°23'0 0.0
2014-Apr-13 07:24N 31°30' E 121°23'0 0.0
2014-Apr-13 06:12N 31°30' E 121°23'0 0.0
2014-Apr-13 05:30N 31°30' E 121°23'0 0.0
2014-Apr-13 04:06N 31°30' E 121°23'0 0.2
2014-Apr-13 03:30N 31°30' E 121°22'0 0.1
2014-Apr-13 02:18N 31°30' E 121°23'0 0.0
2014-Apr-13 01:24N 31°30' E 121°23'0 0.0
2014-Apr-13 00:30N 31°30' E 121°23'0 0.0
2014-Apr-12 23:24N 31°30' E 121°23'0 0.0
2014-Apr-12 22:24N 31°30' E 121°23'0 0.0
2014-Apr-12 21:30N 31°30' E 121°23'0 0.0
2014-Apr-12 20:12N 31°30' E 121°23'0 0.0
2014-Apr-12 19:30N 31°30' E 121°23'0 0.0
2014-Apr-12 18:18N 31°30' E 121°23'0 0.0
2014-Apr-12 17:30N 31°30' E 121°23'0 0.0
2014-Apr-12 16:30N 31°30' E 121°23'0 0.0
2014-Apr-12 15:24N 31°30' E 121°23'0 0.0
2014-Apr-12 14:30N 31°30' E 121°23'0 0.0
2014-Apr-12 13:06N 31°30' E 121°23'0 0.0
2014-Apr-12 12:30N 31°30' E 121°23'0 0.0
2014-Apr-12 10:30N 31°30' E 121°23'0 0.0
2014-Apr-12 09:12N 31°30' E 121°23'0 0.0
2014-Apr-12 08:06N 31°30' E 121°23'0 0.0
2014-Apr-12 07:12N 31°30' E 121°23'0 0.0
2014-Apr-12 06:24N 31°30' E 121°23'0 0.0
2014-Apr-12 05:30N 31°30' E 121°23'0 0.0
2014-Apr-12 04:24N 31°30' E 121°23'0 0.0
2014-Apr-12 03:30N 31°30' E 121°23'0 0.0
2014-Apr-12 02:30N 31°30' E 121°23'0 0.0
2014-Apr-12 01:30N 31°30' E 121°23'0 0.0
2014-Apr-12 00:18N 31°30' E 121°23'0 0.0
2014-Apr-11 23:30N 31°30' E 121°23'0 0.0
2014-Apr-11 22:30N 31°30' E 121°23'0 0.0
2014-Apr-11 21:30N 31°30' E 121°23'0 0.1
2014-Apr-11 19:30N 31°30' E 121°22'0 0.1
2014-Apr-11 18:06N 31°30' E 121°23'0 0.0
2014-Apr-11 17:24N 31°30' E 121°23'0 0.0
2014-Apr-11 16:24N 31°30' E 121°23'0 0.0
2014-Apr-11 15:18N 31°30' E 121°23'1 0.7
2014-Apr-11 14:34N 31°30' E 121°22'6 6.3
2014-Apr-11 13:33N 31°27' E 121°28'9 8.7
2014-Apr-11 12:33N 31°22' E 121°37'5210.3
2014-Apr-11 07:32N 31°11' E 122°36'2 0.3
2014-Apr-10 23:21N 31°13' E 122°38'0 0.0
2014-Apr-10 22:27N 31°13' E 122°38'0 0.0
2014-Apr-10 21:30N 31°13' E 122°38'0 0.0
2014-Apr-10 20:30N 31°13' E 122°38'0 0.0
2014-Apr-10 19:30N 31°13' E 122°38'0 0.0
2014-Apr-10 18:24N 31°13' E 122°38'0 0.0
2014-Apr-10 17:33N 31°13' E 122°38'0 0.0
2014-Apr-10 16:30N 31°13' E 122°38'0 0.0
2014-Apr-10 15:33N 31°13' E 122°38'0 0.0
2014-Apr-10 13:33N 31°13' E 122°38'0 0.0
2014-Apr-10 12:30N 31°13' E 122°38'0 0.0
2014-Apr-10 11:21N 31°13' E 122°38'0 0.0
2014-Apr-10 10:30N 31°13' E 122°38'0 0.0
2014-Apr-10 09:30N 31°13' E 122°38'0 0.1
2014-Apr-10 07:22N 31°13' E 122°38'0 0.0
2014-Apr-10 05:33N 31°13' E 122°38'1 0.8
2014-Apr-10 04:33N 31°14' E 122°38'1211.4
2014-Apr-10 03:28N 31°26' E 122°41'1112.1
2014-Apr-10 02:33N 31°37' E 122°43'1211.9
2014-Apr-10 01:33N 31°48' E 122°46'5012.3
2014-Apr-09 21:29N 32°38' E 122°54'1412.8
2014-Apr-09 20:23N 32°52' E 122°54'21711.5
2014-Apr-09 01:27N 35°58' E 120°37'9 9.9
2014-Apr-09 00:33N 35°60' E 120°27'8 8.1
2014-Apr-08 23:32N 36°02' E 120°17'4 0.5
2014-Apr-08 16:04N 36°05' E 120°19'0 0.0
2014-Apr-08 13:12N 36°05' E 120°19'0 0.0
2014-Apr-08 12:27N 36°05' E 120°19'0 0.0
2014-Apr-08 11:29N 36°05' E 120°19'0 0.0
2014-Apr-07 15:31N 36°05' E 120°19'0 0.0
2014-Apr-07 14:21N 36°05' E 120°19'0 0.0
2014-Apr-07 13:33N 36°05' E 120°19'0 0.0
2014-Apr-07 12:33N 36°05' E 120°19'4 0.2
2014-Apr-06 16:33N 36°02' E 120°19'1313.2
2014-Apr-06 15:33N 35°59' E 120°35'  

Dump ship's entire track history

sailing weather and tide predictions

Rickmers Seoul — V7EI5 — position and weather